createdAt,value
2023-02-01T00:00:34.037Z,95987.6
2023-02-01T00:01:36.564Z,95984.7
2023-02-01T00:02:38.831Z,95978.7
2023-02-01T00:03:41.349Z,95980.5
2023-02-01T00:04:43.461Z,95984.8
2023-02-01T00:05:45.997Z,95982
2023-02-01T00:06:48.304Z,95990.6
2023-02-01T00:07:50.870Z,95979.5
2023-02-01T00:08:53.099Z,95984
2023-02-01T00:09:55.373Z,95981.2
2023-02-01T00:10:57.606Z,95978.7
2023-02-01T00:11:59.850Z,95977.1
2023-02-01T00:13:02.381Z,95976.6
2023-02-01T00:14:04.928Z,95980.2
2023-02-01T00:15:06.882Z,95976.4
2023-02-01T00:16:09.350Z,95979.4
2023-02-01T00:17:11.675Z,95971.8
2023-02-01T00:18:13.985Z,95971.9
2023-02-01T00:19:16.514Z,95974.2
2023-02-01T00:20:18.657Z,95983
2023-02-01T00:21:21.601Z,95974.8
2023-02-01T00:22:23.952Z,95981.7
2023-02-01T00:23:26.492Z,95984.5
2023-02-01T00:24:29.018Z,95980.4
2023-02-01T00:25:31.296Z,95982.5
2023-02-01T00:26:33.773Z,95985.9
2023-02-01T00:27:36.215Z,95986.2
2023-02-01T00:28:38.733Z,95981.1
2023-02-01T00:29:41.016Z,95982.8
2023-02-01T00:30:43.336Z,95980.4
2023-02-01T00:31:45.579Z,95976.7
2023-02-01T00:32:48.148Z,95973.3
2023-02-01T00:33:50.434Z,95973.8
2023-02-01T00:34:52.977Z,95977
2023-02-01T00:35:54.918Z,95970
2023-02-01T00:36:57.173Z,95968.6
2023-02-01T00:37:59.773Z,95971.6
2023-02-01T00:39:02.350Z,95969.9
2023-02-01T00:40:04.619Z,95970.7
2023-02-01T00:41:07.186Z,95969
2023-02-01T00:42:09.115Z,95975.7
2023-02-01T00:43:11.621Z,95979.1
2023-02-01T00:44:14.138Z,95975.9
2023-02-01T00:45:16.666Z,95982.3
2023-02-01T00:46:19.417Z,95983.4
2023-02-01T00:47:21.732Z,95980.3
2023-02-01T00:48:24.237Z,95981.2
2023-02-01T00:49:26.449Z,95986.1
2023-02-01T00:50:28.687Z,95984.7
2023-02-01T00:51:30.936Z,95975.2
2023-02-01T00:52:33.507Z,95974.6
2023-02-01T00:53:36.248Z,95966.6
2023-02-01T00:54:38.840Z,95968.8
2023-02-01T00:55:41.080Z,95958.9
2023-02-01T00:56:43.028Z,95971.1
2023-02-01T00:57:45.532Z,95963.9
2023-02-01T00:58:48.057Z,95963.3
2023-02-01T00:59:50.582Z,95956.9
2023-02-01T01:00:53.350Z,95959.2
2023-02-01T01:01:55.745Z,95958
2023-02-01T01:02:58.353Z,95959.7
2023-02-01T01:04:00.823Z,95952.1
2023-02-01T01:05:03.056Z,95962.1
2023-02-01T01:06:05.349Z,95962.4
2023-02-01T01:07:07.293Z,95955.1
2023-02-01T01:08:09.264Z,95956.2
2023-02-01T01:09:11.879Z,95953.8
2023-02-01T01:10:14.138Z,95957.1
2023-02-01T01:11:16.370Z,95952
2023-02-01T01:12:18.887Z,95958.3
2023-02-01T01:13:21.418Z,95948.6
2023-02-01T01:14:23.653Z,95947.3
2023-02-01T01:15:26.153Z,95960.2
2023-02-01T01:16:29.364Z,95959
2023-02-01T01:17:31.479Z,95970.6
2023-02-01T01:18:33.452Z,95961.5
2023-02-01T01:19:35.398Z,95961.1
2023-02-01T01:20:38.204Z,95945.5
2023-02-01T01:21:40.741Z,95947.5
2023-02-01T01:22:43.253Z,95957
2023-02-01T01:23:45.758Z,95950.2
2023-02-01T01:24:48.274Z,95949
2023-02-01T01:25:50.804Z,95971
2023-02-01T01:26:53.645Z,95944.5
2023-02-01T01:27:56.062Z,95943.6
2023-02-01T01:28:58.366Z,95951.5
2023-02-01T01:30:00.891Z,95953.8
2023-02-01T01:31:03.559Z,95946.5
2023-02-01T01:32:06.069Z,95949
2023-02-01T01:33:08.049Z,95943.5
2023-02-01T01:34:10.589Z,95943.6
2023-02-01T01:35:12.541Z,95948.1
2023-02-01T01:36:15.125Z,95949.1
2023-02-01T01:37:17.657Z,95944.2
2023-02-01T01:38:19.886Z,95944.1
2023-02-01T01:39:22.393Z,95948.1
2023-02-01T01:40:25.119Z,95945.3
2023-02-01T01:41:27.673Z,95946.6
2023-02-01T01:42:29.903Z,95945.6
2023-02-01T01:43:32.417Z,95945
2023-02-01T01:44:34.937Z,95942.3
2023-02-01T01:45:37.689Z,95948.3
2023-02-01T01:46:40.274Z,95942.1
2023-02-01T01:47:42.920Z,95943.9
2023-02-01T01:48:45.145Z,95936.4
2023-02-01T01:49:47.666Z,95936.2
2023-02-01T01:50:49.893Z,95926.2
2023-02-01T01:51:52.143Z,95932
2023-02-01T01:52:54.735Z,95924.3
2023-02-01T01:53:57.251Z,95921.6
2023-02-01T01:54:59.493Z,95921.3
2023-02-01T01:56:02.127Z,95915.4
2023-02-01T01:57:04.682Z,95911
2023-02-01T01:58:06.693Z,95917
2023-02-01T01:59:08.932Z,95919.2
2023-02-01T02:00:11.161Z,95917.5
2023-02-01T02:01:13.921Z,95910.5
2023-02-01T02:02:16.595Z,95915.8
2023-02-01T02:03:19.262Z,95914.4
2023-02-01T02:04:21.789Z,95909.2
2023-02-01T02:05:24.554Z,95912.3
2023-02-01T02:06:27.076Z,95903.9
2023-02-01T02:07:29.626Z,95900.9
2023-02-01T02:08:32.152Z,95904.1
2023-02-01T02:09:34.702Z,95903.4
2023-02-01T02:10:37.232Z,95900
2023-02-01T02:11:39.821Z,95898.8
2023-02-01T02:12:42.412Z,95902.9
2023-02-01T02:13:44.988Z,95900.5
2023-02-01T02:14:47.491Z,95901.8
2023-02-01T02:15:49.997Z,95906.6
2023-02-01T02:16:52.511Z,95907.9
2023-02-01T02:17:54.776Z,95908
2023-02-01T02:18:57.029Z,95913.5
2023-02-01T02:19:59.247Z,95922.9
2023-02-01T02:21:01.480Z,95918.9
2023-02-01T02:22:03.699Z,95916.3
2023-02-01T02:23:06.211Z,95916.2
2023-02-01T02:24:08.783Z,95926.9
2023-02-01T02:25:11.294Z,95917
2023-02-01T02:26:13.563Z,95918.9
2023-02-01T02:27:16.232Z,95922
2023-02-01T02:28:18.773Z,95923.2
2023-02-01T02:29:21.296Z,95930.8
2023-02-01T02:30:25.428Z,95929.2
2023-02-01T02:31:28.262Z,95929.1
2023-02-01T02:32:30.789Z,95928.7
2023-02-01T02:33:32.737Z,95926.8
2023-02-01T02:34:34.974Z,95928.6
2023-02-01T02:35:37.479Z,95932.2
2023-02-01T02:36:40.017Z,95933.9
2023-02-01T02:37:42.555Z,95933.8
2023-02-01T02:38:44.241Z,95930.3
2023-02-01T02:39:46.513Z,95931.4
2023-02-01T02:40:48.764Z,95929.5
2023-02-01T02:41:51.289Z,95926.4
2023-02-01T02:42:53.582Z,95933.1
2023-02-01T02:43:56.107Z,95930.7
2023-02-01T02:44:58.629Z,95934.5
2023-02-01T02:46:01.186Z,95923.9
2023-02-01T02:47:03.623Z,95918.5
2023-02-01T02:48:05.851Z,95922.6
2023-02-01T02:49:08.121Z,95913.9
2023-02-01T02:50:10.338Z,95911.7
2023-02-01T02:51:12.584Z,95915
2023-02-01T02:52:14.866Z,95909.9
2023-02-01T02:53:17.113Z,95911.5
2023-02-01T02:54:19.667Z,95907.6
2023-02-01T02:55:21.913Z,95905.9
2023-02-01T02:56:24.514Z,95908.6
2023-02-01T02:57:26.776Z,95905.8
2023-02-01T02:58:29.242Z,95902.8
2023-02-01T02:59:31.505Z,95903.7
2023-02-01T03:00:34.096Z,95900.3
2023-02-01T03:01:36.631Z,95900
2023-02-01T03:02:39.205Z,95907.6
2023-02-01T03:03:41.792Z,95908.7
2023-02-01T03:04:44.354Z,95901.8
2023-02-01T03:05:46.347Z,95899.7
2023-02-01T03:06:48.892Z,95899.6
2023-02-01T03:07:51.419Z,95893.2
2023-02-01T03:08:53.982Z,95894.8
2023-02-01T03:09:56.568Z,95888.6
2023-02-01T03:10:59.147Z,95898.3
2023-02-01T03:12:01.118Z,95894.8
2023-02-01T03:13:03.344Z,95893
2023-02-01T03:14:05.931Z,95892.6
2023-02-01T03:15:08.186Z,95888.7
2023-02-01T03:16:11.048Z,95886.4
2023-02-01T03:17:12.811Z,95884.7
2023-02-01T03:18:15.303Z,95884.1
2023-02-01T03:19:17.858Z,95896.3
2023-02-01T03:20:20.751Z,95879.2
2023-02-01T03:21:23.810Z,95885.2
2023-02-01T03:22:26.057Z,95889.3
2023-02-01T03:23:28.567Z,95894.6
2023-02-01T03:24:30.797Z,95890.4
2023-02-01T03:25:33.321Z,95888
2023-02-01T03:26:35.723Z,95896.1
2023-02-01T03:27:38.015Z,95893.7
2023-02-01T03:28:40.520Z,95879.3
2023-02-01T03:29:43.141Z,95887.5
2023-02-01T03:30:45.903Z,95894.4
2023-02-01T03:31:48.793Z,95889.6
2023-02-01T03:32:51.149Z,95884.8
2023-02-01T03:33:53.110Z,95886.4
2023-02-01T03:34:55.342Z,95885
2023-02-01T03:35:57.307Z,95887.6
2023-02-01T03:36:59.705Z,95890.3
2023-02-01T03:38:02.215Z,95885.2
2023-02-01T03:39:04.767Z,95886
2023-02-01T03:40:07.288Z,95887
2023-02-01T03:41:09.533Z,95888.7
2023-02-01T03:42:11.787Z,95895.5
2023-02-01T03:43:14.325Z,95887.9
2023-02-01T03:44:16.859Z,95889.4
2023-02-01T03:45:19.161Z,95884.4
2023-02-01T03:46:21.722Z,95887.2
2023-02-01T03:47:24.305Z,95891.7
2023-02-01T03:48:26.843Z,95886
2023-02-01T03:49:29.361Z,95877.7
2023-02-01T03:50:31.869Z,95881.1
2023-02-01T03:51:34.720Z,95880.9
2023-02-01T03:52:37.389Z,95877.8
2023-02-01T03:53:39.909Z,95871.9
2023-02-01T03:54:41.852Z,95877.1
2023-02-01T03:55:44.364Z,95876.5
2023-02-01T03:56:46.900Z,95877.2
2023-02-01T03:57:48.917Z,95879.8
2023-02-01T03:58:51.174Z,95876
2023-02-01T03:59:53.461Z,95881.3
2023-02-01T04:00:56.254Z,95879.3
2023-02-01T04:01:58.889Z,95887.1
2023-02-01T04:03:00.580Z,95882.9
2023-02-01T04:04:02.797Z,95871.1
2023-02-01T04:05:05.028Z,95874.3
2023-02-01T04:06:07.532Z,95871.3
2023-02-01T04:07:09.738Z,95883.3
2023-02-01T04:08:11.971Z,95878.8
2023-02-01T04:09:14.479Z,95877.8
2023-02-01T04:11:21.978Z,95885.9
2023-02-01T04:12:24.314Z,95875.7
2023-02-01T04:13:26.608Z,95879.5
2023-02-01T04:14:28.884Z,95882.7
2023-02-01T04:15:31.387Z,95882
2023-02-01T04:16:33.803Z,95888.5
2023-02-01T04:18:38.049Z,95883.1
2023-02-01T04:19:40.538Z,95876.2
2023-02-01T04:20:42.778Z,95881.3
2023-02-01T04:21:45.283Z,95876.3
2023-02-01T04:22:47.497Z,95876.8
2023-02-01T04:23:49.764Z,95876.1
2023-02-01T04:24:51.973Z,95866.3
2023-02-01T04:25:54.495Z,95868
2023-02-01T04:26:56.438Z,95864
2023-02-01T04:27:58.969Z,95861.6
2023-02-01T04:29:01.503Z,95863.2
2023-02-01T04:30:03.940Z,95863.7
2023-02-01T04:31:06.850Z,95863.5
2023-02-01T04:32:09.683Z,95862
2023-02-01T04:33:12.205Z,95870.6
2023-02-01T04:34:14.719Z,95863.5
2023-02-01T04:35:16.925Z,95870.1
2023-02-01T04:36:19.167Z,95869.5
2023-02-01T04:37:21.650Z,95872.3
2023-02-01T04:38:23.347Z,95860.8
2023-02-01T04:39:26.218Z,95873.6
2023-02-01T04:40:28.916Z,95874.3
2023-02-01T04:41:31.208Z,95870
2023-02-01T04:42:33.481Z,95869.8
2023-02-01T04:43:35.753Z,95876.8
2023-02-01T04:44:37.769Z,95876.9
2023-02-01T04:45:40.033Z,95869
2023-02-01T04:46:42.552Z,95871.2
2023-02-01T04:47:45.173Z,95882.5
2023-02-01T04:48:47.716Z,95888.9
2023-02-01T04:49:50.280Z,95869.2
2023-02-01T04:50:52.814Z,95870
2023-02-01T04:51:55.340Z,95869.3
2023-02-01T04:52:57.850Z,95876
2023-02-01T04:54:00.356Z,95869.4
2023-02-01T04:55:02.950Z,95868.9
2023-02-01T04:56:05.188Z,95865.3
2023-02-01T04:57:07.700Z,95875.2
2023-02-01T04:58:10.248Z,95879.1
2023-02-01T04:59:12.497Z,95875.8
2023-02-01T05:00:15.021Z,95871.6
2023-02-01T05:01:17.732Z,95868.7
2023-02-01T05:02:20.330Z,95866.3
2023-02-01T05:03:22.923Z,95863.8
2023-02-01T05:04:25.670Z,95865.3
2023-02-01T05:05:28.124Z,95868.7
2023-02-01T05:06:30.662Z,95876.8
2023-02-01T05:07:32.623Z,95874.9
2023-02-01T05:08:34.933Z,95866.2
2023-02-01T05:09:41.942Z,95872.7
2023-02-01T05:10:44.474Z,95870.4
2023-02-01T05:11:46.976Z,95872.9
2023-02-01T05:12:49.189Z,95873
2023-02-01T05:13:51.150Z,95865.8
2023-02-01T05:14:53.659Z,95873.1
2023-02-01T05:15:56.503Z,95880.8
2023-02-01T05:16:59.140Z,95871.8
2023-02-01T05:18:01.675Z,95870.2
2023-02-01T05:19:03.978Z,95874.2
2023-02-01T05:20:06.524Z,95868.7
2023-02-01T05:21:09.023Z,95872.8
2023-02-01T05:22:11.313Z,95882.5
2023-02-01T05:23:13.244Z,95879.6
2023-02-01T05:24:15.823Z,95871.7
2023-02-01T05:25:18.163Z,95873.8
2023-02-01T05:26:20.823Z,95872.9
2023-02-01T05:27:23.133Z,95880.4
2023-02-01T05:28:25.359Z,95879.4
2023-02-01T05:29:27.598Z,95876.3
2023-02-01T05:30:29.893Z,95879.2
2023-02-01T05:31:33.039Z,95876.9
2023-02-01T05:32:35.898Z,95878.8
2023-02-01T05:33:38.411Z,95870.6
2023-02-01T05:34:40.999Z,95875.9
2023-02-01T05:35:43.511Z,95883.3
2023-02-01T05:36:46.072Z,95877.5
2023-02-01T05:37:48.309Z,95887
2023-02-01T05:38:50.545Z,95856.5
2023-02-01T05:39:52.244Z,95872.5
2023-02-01T05:40:54.497Z,95867.2
2023-02-01T05:41:56.461Z,95863.6
2023-02-01T05:42:58.995Z,95856.6
2023-02-01T05:44:00.965Z,95858.3
2023-02-01T05:45:03.295Z,95856.8
2023-02-01T05:46:05.724Z,95860.9
2023-02-01T05:47:08.091Z,95860.3
2023-02-01T05:48:10.609Z,95860.4
2023-02-01T05:49:12.301Z,95867.1
2023-02-01T05:50:14.909Z,95866.7
2023-02-01T05:51:17.484Z,95867.9
2023-02-01T05:52:20.213Z,95866.1
2023-02-01T05:53:22.823Z,95867.3
2023-02-01T05:54:25.390Z,95872.4
2023-02-01T05:55:27.914Z,95868.2
2023-02-01T05:56:30.465Z,95886.1
2023-02-01T05:57:32.733Z,95874.8
2023-02-01T05:58:35.402Z,95878.3
2023-02-01T05:59:37.679Z,95872.4
2023-02-01T06:00:40.164Z,95879.3
2023-02-01T06:01:42.694Z,95866.5
2023-02-01T06:02:45.193Z,95870.7
2023-02-01T06:03:48.056Z,95871.4
2023-02-01T06:04:50.371Z,95873.6
2023-02-01T06:05:52.943Z,95868.3
2023-02-01T06:06:55.191Z,95866.1
2023-02-01T06:07:57.435Z,95869
2023-02-01T06:08:59.974Z,95866.4
2023-02-01T06:10:02.221Z,95873.6
2023-02-01T06:11:04.470Z,95855.2
2023-02-01T06:12:07.073Z,95847.1
2023-02-01T06:13:09.328Z,95839.2
2023-02-01T06:14:11.565Z,95860.5
2023-02-01T06:15:13.850Z,95857.9
2023-02-01T06:16:16.652Z,95877.2
2023-02-01T06:17:19.268Z,95863.7
2023-02-01T06:18:21.811Z,95866.2
2023-02-01T06:19:24.029Z,95872.9
2023-02-01T06:20:26.758Z,95865
2023-02-01T06:21:29.437Z,95881.4
2023-02-01T06:22:32.026Z,95871
2023-02-01T06:23:34.597Z,95876.5
2023-02-01T06:24:37.156Z,95868.9
2023-02-01T06:25:39.709Z,95871.1
2023-02-01T06:26:42.531Z,95869
2023-02-01T06:27:44.890Z,95868.3
2023-02-01T06:28:46.911Z,95872.1
2023-02-01T06:29:49.410Z,95866.5
2023-02-01T06:30:52.119Z,95867.6
2023-02-01T06:31:54.994Z,95868.5
2023-02-01T06:32:57.270Z,95873.2
2023-02-01T06:33:59.747Z,95864.3
2023-02-01T06:35:02.265Z,95865.6
2023-02-01T06:36:04.267Z,95864
2023-02-01T06:37:06.729Z,95863.8
2023-02-01T06:38:08.736Z,95862.7
2023-02-01T06:39:10.972Z,95856.9
2023-02-01T06:40:13.522Z,95868.8
2023-02-01T06:41:15.756Z,95864.4
2023-02-01T06:42:18.269Z,95863.5
2023-02-01T06:43:20.498Z,95866.3
2023-02-01T06:44:23.101Z,95868.9
2023-02-01T06:45:25.334Z,95868.1
2023-02-01T06:46:27.669Z,95868.5
2023-02-01T06:47:30.272Z,95864.2
2023-02-01T06:48:32.275Z,95871.7
2023-02-01T06:49:34.706Z,95864.4
2023-02-01T06:50:37.218Z,95867.3
2023-02-01T06:51:39.729Z,95861.6
2023-02-01T06:52:42.333Z,95859.3
2023-02-01T06:53:44.868Z,95857.2
2023-02-01T06:54:47.401Z,95862.3
2023-02-01T06:55:49.705Z,95866.4
2023-02-01T06:56:52.241Z,95866.6
2023-02-01T06:57:54.770Z,95856.8
2023-02-01T06:58:57.343Z,95860.4
2023-02-01T06:59:59.874Z,95854.2
2023-02-01T07:01:02.649Z,95872.9
2023-02-01T07:02:05.460Z,95870.2
2023-02-01T07:03:07.770Z,95866.9
2023-02-01T07:04:10.280Z,95866
2023-02-01T07:05:12.817Z,95863.3
2023-02-01T07:06:15.075Z,95864.1
2023-02-01T07:07:17.307Z,95861.2
2023-02-01T07:08:19.661Z,95863.9
2023-02-01T07:09:21.931Z,95871.5
2023-02-01T07:10:25.801Z,95869.9
2023-02-01T07:11:27.221Z,95876.1
2023-02-01T07:12:29.775Z,95863.5
2023-02-01T07:13:31.982Z,95859.7
2023-02-01T07:14:34.262Z,95861.5
2023-02-01T07:15:36.819Z,95856.5
2023-02-01T07:16:39.535Z,95866.5
2023-02-01T07:17:41.862Z,95869.5
2023-02-01T07:18:44.164Z,95870.5
2023-02-01T07:19:46.681Z,95876.1
2023-02-01T07:20:48.937Z,95866.8
2023-02-01T07:21:51.180Z,95853.4
2023-02-01T07:22:53.693Z,95846.7
2023-02-01T07:23:56.281Z,95854.5
2023-02-01T07:24:58.842Z,95853.8
2023-02-01T07:26:01.355Z,95851.6
2023-02-01T07:27:03.620Z,95847.9
2023-02-01T07:28:06.246Z,95848.9
2023-02-01T07:29:07.942Z,95861.2
2023-02-01T07:30:10.509Z,95850.2
2023-02-01T07:31:13.411Z,95855.6
2023-02-01T07:32:15.907Z,95854.5
2023-02-01T07:33:18.499Z,95860
2023-02-01T07:34:21.082Z,95844.9
2023-02-01T07:35:23.195Z,95849.4
2023-02-01T07:36:25.807Z,95851.6
2023-02-01T07:37:28.073Z,95851.5
2023-02-01T07:38:30.305Z,95847.9
2023-02-01T07:39:32.905Z,95846.2
2023-02-01T07:40:35.498Z,95846.7
2023-02-01T07:41:37.738Z,95851.9
2023-02-01T07:42:40.251Z,95852
2023-02-01T07:43:42.508Z,95855.2
2023-02-01T07:44:45.050Z,95842.8
2023-02-01T07:45:47.675Z,95832.5
2023-02-01T07:46:49.966Z,95834.4
2023-02-01T07:47:52.509Z,95831.8
2023-02-01T07:48:55.049Z,95830.8
2023-02-01T07:49:57.560Z,95833.7
2023-02-01T07:50:59.262Z,95840.5
2023-02-01T07:52:01.614Z,95842.2
2023-02-01T07:53:03.907Z,95848.4
2023-02-01T07:54:06.512Z,95841.6
2023-02-01T07:55:08.831Z,95839.7
2023-02-01T07:56:11.477Z,95849.2
2023-02-01T07:57:13.180Z,95845.5
2023-02-01T07:58:15.708Z,95853.7
2023-02-01T07:59:17.974Z,95848.1
2023-02-01T08:00:19.981Z,95848.3
2023-02-01T08:01:22.919Z,95845
2023-02-01T08:02:25.746Z,95852.2
2023-02-01T08:03:28.232Z,95868.9
2023-02-01T08:04:45.125Z,95864.5
2023-02-01T08:05:47.076Z,95864.4
2023-02-01T08:06:49.592Z,95862.9
2023-02-01T08:07:52.167Z,95872.9
2023-02-01T08:08:54.730Z,95879.4
2023-02-01T08:09:57.253Z,95880.4
2023-02-01T08:10:59.642Z,95877.1
2023-02-01T08:12:01.907Z,95873.5
2023-02-01T08:13:04.429Z,95896.7
2023-02-01T08:14:06.422Z,95887.5
2023-02-01T08:15:08.468Z,95885.6
2023-02-01T08:16:11.185Z,95887.7
2023-02-01T08:17:13.475Z,95883.9
2023-02-01T08:18:15.997Z,95892.7
2023-02-01T08:19:18.514Z,95892.4
2023-02-01T08:20:22.169Z,95890.3
2023-02-01T08:21:25.397Z,95888.6
2023-02-01T08:22:27.674Z,95893.3
2023-02-01T08:23:29.662Z,95887.2
2023-02-01T08:24:31.900Z,95894.4
2023-02-01T08:25:34.175Z,95895.9
2023-02-01T08:26:36.759Z,95892.1
2023-02-01T08:27:39.481Z,95884
2023-02-01T08:28:42.026Z,95891.2
2023-02-01T08:29:44.249Z,95891.1
2023-02-01T08:30:46.677Z,95891.6
2023-02-01T08:31:49.287Z,95887.1
2023-02-01T08:32:51.748Z,95889.3
2023-02-01T08:33:54.031Z,95894.7
2023-02-01T08:34:56.298Z,95920.8
2023-02-01T08:35:58.819Z,95918.3
2023-02-01T08:37:01.129Z,95907.2
2023-02-01T08:38:03.693Z,95901.8
2023-02-01T08:39:06.254Z,95914.2
2023-02-01T08:40:08.539Z,95911.4
2023-02-01T08:41:11.081Z,95901.2
2023-02-01T08:42:13.835Z,95898
2023-02-01T08:43:16.085Z,95904.4
2023-02-01T08:44:18.061Z,95902
2023-02-01T08:45:20.044Z,95904.4
2023-02-01T08:46:22.673Z,95923
2023-02-01T08:47:25.243Z,95897.5
2023-02-01T08:48:27.520Z,95886.4
2023-02-01T08:49:29.803Z,95893
2023-02-01T08:50:32.447Z,95914.7
2023-02-01T08:51:35.058Z,95876
2023-02-01T08:52:39.666Z,95885.7
2023-02-01T08:53:42.002Z,95895.5
2023-02-01T08:54:44.593Z,95879.9
2023-02-01T08:55:46.863Z,95880.1
2023-02-01T08:56:49.327Z,95884.4
2023-02-01T08:57:52.120Z,95891.3
2023-02-01T08:58:54.104Z,95901.9
2023-02-01T08:59:56.351Z,95912.2
2023-02-01T09:00:59.094Z,95899.8
2023-02-01T09:02:01.153Z,95917.5
2023-02-01T09:03:03.670Z,95900
2023-02-01T09:04:06.234Z,95891.5
2023-02-01T09:05:08.683Z,95887.9
2023-02-01T09:06:11.279Z,95887.6
2023-02-01T09:07:13.536Z,95885.6
2023-02-01T09:08:15.511Z,95881.3
2023-02-01T09:09:18.083Z,95891
2023-02-01T09:11:25.349Z,95891.8
2023-02-01T09:12:27.905Z,95891.2
2023-02-01T09:13:30.232Z,95894.4
2023-02-01T09:14:32.804Z,95914.6
2023-02-01T09:15:35.082Z,95906.3
2023-02-01T09:16:36.852Z,95913.9
2023-02-01T09:17:39.400Z,95900.5
2023-02-01T09:19:46.634Z,95900.9
2023-02-01T09:20:49.219Z,95922
2023-02-01T09:21:51.512Z,95918
2023-02-01T09:22:53.870Z,95918.5
2023-02-01T09:23:56.587Z,95932.3
2023-02-01T09:24:59.211Z,95924.9
2023-02-01T09:26:01.615Z,95914.6
2023-02-01T09:27:04.696Z,95919.6
2023-02-01T09:28:07.319Z,95900.3
2023-02-01T09:29:09.083Z,95904.1
2023-02-01T09:30:11.376Z,95904.4
2023-02-01T09:31:14.124Z,95909.8
2023-02-01T09:32:17.510Z,95903.7
2023-02-01T09:33:19.692Z,95899.6
2023-02-01T09:34:21.922Z,95901.7
2023-02-01T09:35:24.443Z,95902.4
2023-02-01T09:36:26.742Z,95900.9
2023-02-01T09:37:30.879Z,95899.2
2023-02-01T09:39:40.070Z,95910.2
2023-02-01T09:40:42.691Z,95896.3
2023-02-01T09:41:45.268Z,95898.9
2023-02-01T09:42:47.511Z,95908.5
2023-02-01T09:43:50.043Z,95893.5
2023-02-01T09:44:52.650Z,95901.4
2023-02-01T09:45:55.492Z,95898.1
2023-02-01T09:46:57.807Z,95911.1
2023-02-01T09:47:59.789Z,95890
2023-02-01T09:49:01.785Z,95896.3
2023-02-01T09:50:04.072Z,95898.2
2023-02-01T09:51:06.354Z,95901.8
2023-02-01T09:52:08.582Z,95896.7
2023-02-01T09:53:11.136Z,95901.8
2023-02-01T09:54:13.686Z,95898.1
2023-02-01T09:55:15.963Z,95895.3
2023-02-01T09:56:18.191Z,95891.6
2023-02-01T09:57:20.453Z,95900.4
2023-02-01T09:58:22.698Z,95891.1
2023-02-01T09:59:25.203Z,95894.3
2023-02-01T10:00:28.812Z,95920.1
2023-02-01T10:01:31.450Z,95895.8
2023-02-01T10:02:34.013Z,95912.5
2023-02-01T10:03:36.826Z,95894.4
2023-02-01T10:04:39.212Z,95899.9
2023-02-01T10:05:41.728Z,95906
2023-02-01T10:06:43.453Z,95921
2023-02-01T10:07:45.687Z,95924.3
2023-02-01T10:08:47.941Z,95922.9
2023-02-01T10:09:50.297Z,95907.7
2023-02-01T10:10:52.842Z,95903.8
2023-02-01T10:11:55.402Z,95911.4
2023-02-01T10:12:58.005Z,95912
2023-02-01T10:14:00.537Z,95903.1
2023-02-01T10:15:02.802Z,95908.7
2023-02-01T10:16:06.082Z,95915.1
2023-02-01T10:17:08.286Z,95911.9
2023-02-01T10:18:10.793Z,95904.6
2023-02-01T10:19:12.792Z,95921.3
2023-02-01T10:20:15.327Z,95925.7
2023-02-01T10:21:17.837Z,95921.6
2023-02-01T10:22:19.815Z,95917.9
2023-02-01T10:24:27.063Z,95916.2
2023-02-01T10:25:30.401Z,95922.3
2023-02-01T10:26:33.206Z,95922.4
2023-02-01T10:27:35.783Z,95924.2
2023-02-01T10:28:38.038Z,95943.6
2023-02-01T10:29:40.318Z,95928
2023-02-01T10:30:42.777Z,95921.5
2023-02-01T10:31:45.667Z,95916
2023-02-01T10:32:48.482Z,95912.3
2023-02-01T10:33:50.469Z,95925.5
2023-02-01T10:34:52.700Z,95922.4
2023-02-01T10:35:54.947Z,95931.9
2023-02-01T10:36:57.799Z,95934.4
2023-02-01T10:38:00.123Z,95931.7
2023-02-01T10:39:02.697Z,95932.6
2023-02-01T10:40:04.950Z,95940.3
2023-02-01T10:41:07.469Z,95929.7
2023-02-01T10:42:12.541Z,95941.1
2023-02-01T10:43:14.861Z,95941.9
2023-02-01T10:44:17.300Z,95943.5
2023-02-01T10:45:19.818Z,95939.7
2023-02-01T10:46:22.497Z,95953.1
2023-02-01T10:47:25.251Z,95938.4
2023-02-01T10:48:28.769Z,95943.1
2023-02-01T10:49:33.216Z,95940.2
2023-02-01T10:50:35.434Z,95943.2
2023-02-01T10:51:37.389Z,95955.3
2023-02-01T10:52:39.336Z,95948
2023-02-01T10:53:41.318Z,95941.1
2023-02-01T10:54:43.378Z,95936.6
2023-02-01T10:55:45.906Z,95945.1
2023-02-01T10:56:48.418Z,95934.6
2023-02-01T10:57:50.702Z,95937.1
2023-02-01T10:58:52.669Z,95939.5
2023-02-01T10:59:54.668Z,95950.1
2023-02-01T11:00:56.642Z,95948.2
2023-02-01T11:02:01.536Z,95934.3
2023-02-01T11:03:04.228Z,95943.2
2023-02-01T11:04:06.999Z,95950.3
2023-02-01T11:05:09.517Z,95953.5
2023-02-01T11:06:12.250Z,95946.1
2023-02-01T11:07:14.676Z,95944
2023-02-01T11:08:16.919Z,95948.2
2023-02-01T11:09:18.890Z,95949.5
2023-02-01T11:10:22.331Z,95941.9
2023-02-01T11:11:25.144Z,95961.8
2023-02-01T11:12:27.430Z,95945.5
2023-02-01T11:13:29.982Z,95948.2
2023-02-01T11:14:32.251Z,95953.5
2023-02-01T11:15:34.526Z,95951.5
2023-02-01T11:16:37.088Z,95952.8
2023-02-01T11:17:39.623Z,95950.3
2023-02-01T11:18:41.947Z,95950.9
2023-02-01T11:19:44.482Z,95956.1
2023-02-01T11:20:46.987Z,95948.1
2023-02-01T11:21:49.523Z,95962.6
2023-02-01T11:22:52.020Z,95944.8
2023-02-01T11:23:54.561Z,95952.1
2023-02-01T11:24:57.320Z,95948.1
2023-02-01T11:25:59.381Z,95951.9
2023-02-01T11:27:01.639Z,95954.1
2023-02-01T11:28:03.876Z,95952.2
2023-02-01T11:29:06.103Z,95949.4
2023-02-01T11:30:08.617Z,95956.6
2023-02-01T11:31:11.521Z,95958.1
2023-02-01T11:32:14.245Z,95952
2023-02-01T11:33:16.485Z,95952.3
2023-02-01T11:34:20.196Z,95948.2
2023-02-01T11:35:24.421Z,95953.3
2023-02-01T11:36:27.706Z,95954.8
2023-02-01T11:37:30.253Z,95952.6
2023-02-01T11:38:32.495Z,95955.4
2023-02-01T11:39:34.745Z,95958.9
2023-02-01T11:40:37.277Z,95966.5
2023-02-01T11:41:39.815Z,95962.8
2023-02-01T11:42:42.039Z,95966
2023-02-01T11:43:44.524Z,95977.3
2023-02-01T11:44:47.067Z,95966.6
2023-02-01T11:45:49.283Z,95965.8
2023-02-01T11:46:52.219Z,95984.3
2023-02-01T11:47:54.596Z,95964.4
2023-02-01T11:48:57.116Z,95960.4
2023-02-01T11:49:59.746Z,95972.2
2023-02-01T11:51:03.549Z,95965.6
2023-02-01T11:52:08.709Z,95969.3
2023-02-01T11:53:11.230Z,95962.2
2023-02-01T11:54:13.947Z,95970.1
2023-02-01T11:55:16.451Z,95954.9
2023-02-01T11:56:18.436Z,95964.6
2023-02-01T11:57:21.044Z,95961.7
2023-02-01T11:58:23.308Z,95959.6
2023-02-01T11:59:25.816Z,95960
2023-02-01T12:00:28.355Z,95958.8
2023-02-01T12:01:30.874Z,95948.1
2023-02-01T12:02:33.129Z,95957
2023-02-01T12:03:35.897Z,95943.2
2023-02-01T12:04:38.331Z,95949.5
2023-02-01T12:05:40.942Z,95946.2
2023-02-01T12:06:43.184Z,95940.5
2023-02-01T12:07:45.710Z,95946.3
2023-02-01T12:08:48.086Z,95951.2
2023-02-01T12:09:50.043Z,95941.5
2023-02-01T12:10:52.542Z,95941.6
2023-02-01T12:11:55.045Z,95940.2
2023-02-01T12:12:56.994Z,95936.5
2023-02-01T12:13:59.276Z,95937.6
2023-02-01T12:15:01.857Z,95932.3
2023-02-01T12:16:04.728Z,95930.8
2023-02-01T12:17:07.422Z,95921.6
2023-02-01T12:18:09.979Z,95926.6
2023-02-01T12:19:12.484Z,95917.7
2023-02-01T12:20:14.704Z,95914.4
2023-02-01T12:21:17.287Z,95918.3
2023-02-01T12:22:19.302Z,95920.3
2023-02-01T12:23:21.697Z,95923.8
2023-02-01T12:24:24.218Z,95899.9
2023-02-01T12:25:26.192Z,95897.1
2023-02-01T12:26:28.372Z,95893.8
2023-02-01T12:27:30.133Z,95899.9
2023-02-01T12:28:32.368Z,95890.5
2023-02-01T12:29:34.931Z,95908.1
2023-02-01T12:30:37.344Z,95886.3
2023-02-01T12:31:39.812Z,95902.2
2023-02-01T12:32:42.501Z,95901.8
2023-02-01T12:33:44.515Z,95893.4
2023-02-01T12:34:46.490Z,95898.8
2023-02-01T12:35:49.069Z,95906.8
2023-02-01T12:36:51.696Z,95897.2
2023-02-01T12:37:53.981Z,95897.1
2023-02-01T12:38:56.597Z,95897.2
2023-02-01T12:39:59.143Z,95909.3
2023-02-01T12:41:01.689Z,95886.8
2023-02-01T12:42:03.679Z,95893.9
2023-02-01T12:43:06.023Z,95891.4
2023-02-01T12:44:08.620Z,95889.8
2023-02-01T12:45:10.899Z,95882.7
2023-02-01T12:46:13.198Z,95880.7
2023-02-01T12:47:15.519Z,95896.7